Share

Andrews, SC

Spring Gully (KSCGEORG8) Elev 20 ft | 33.38 °N, 79.42 °W | Change Station
Active Advisory: Flood Warning Active Notice: Record Report

Current weather conditions updated 11 minutes ago

Rain
Rain
52.3 °F
Feels Like 52.3 °F
N
0.0
Wind Variable Wind from NW
Gusts 3.0 mph
Sunrise 6:41 AM
Sunset 7:52 PM
Moon Waning Gibbous

Today is forecast to be nearly the same temperature as yesterday. Showers ending by midday.

Pressure 30.06 in
Visibility 10.0 miles
Clouds Overcast 700 ft
Dew Point 52 °F
Humidity 98%
Rainfall 0.14 in
Snow Depth Not available.
UV 0 out of 16
Pollen .90 out of 12
Air Quality Not available.
Flu Activity Local Activity
METAR KGGE 200535Z AUTO 01007KT 10SM RA OVC007 11/11 A3006 RMK AO2 LTG DSNT SE P0001

More Conditions Fewer Conditions

Pressure 30.06 in
Visibility 10.0 miles
Clouds Overcast 700 ft
Dew Point 52 °F
Humidity 98%
Rainfall 0.14 in
Snow Depth Not available.
UV 0 out of 16
Pollen .90 out of 12
Air Quality Not available.
Flu Activity Local Activity
METAR KGGE 200535Z AUTO 01007KT 10SM RA OVC007 11/11 A3006 RMK AO2 LTG DSNT SE P0001

More Conditions Fewer Conditions

10-Day Weather Forecast

Almanac

Astronomy

Apr. 20, 2014 Rise Set
Actual Time 6:41 AM EDT 7:52 PM EDT
Civil Twilight 6:16 AM EDT 8:18 PM EDT
Nautical Twilight 5:45 AM EDT 8:49 PM EDT
Astronomical Twilight 5:13 AM EDT 9:21 PM EDT
Moon 12:25 AM EDT 11:06 AM EDT
Length of Visible Light 14h 02m
Length of Day
13h 10m
Tomorrow will be 1m 55s longer.
Waning Gibbous, 73% of the Moon is Illuminated
Today
Waning Gibbous
Apr 22
Last Quarter
Apr 29
New
May 6
First Quarter
May 14
Full

Today's Extremes

State Highs State Lows

Community

  • Sunny day at the coast-Cape Arago Lighthouse
    Sunny day at the coast-Cape Arago Lighthouse
  • Cherry Blossoms
    Cherry Blossoms
  • White-Crowned Sparrow
    White-Crowned Sparrow
  • New Day
    New Day
  • Happy Easter!
    Happy Easter!

WunderPhotos

Upload Photos

1,703,086 photos uploaded!

WunderBlogs® & News

Nearby

Snow Depth

Station Depth Elevation
No new snow has been reported.

Coastal Water Temperatures

Place Temperature
Springmaid Pier, SC 61.0 °F

Earthquake Activity

City Distance Mag. Time & Date
No recent earthquake activity has been reported nearby.
Minimum magnitude displayed is 2.5.

Nearby Weather Stations

Station Location Temp. Dew Point Humidity Wind Precip. Elev Updated Type
Spring Gully, Georgetown, SC 52.3 °F 52 °F 98% NW  at  0.0 mph 0.05 in / hr 20 ft 1:32 AM EDT Normal
Browns Ferry, Georgetown, SC 52.2 °F 51 °F 96% NNE  at  1.0 mph 0.00 in / hr 13 ft 1:40 AM EDT Normal
Debordieu, Georgetown, SC 52.1 °F 52 °F 99% ENE  at  1.0 mph 0.04 in / hr 30 ft 1:38 AM EDT Normal
MesoWest NERRS METEOROLOGICAL SITE AT NO, Georgetown, SC 53 °F 51 °F 95% North  at  11 mph 0.06 in / hr -2 ft 12:45 AM EDT MADIS

Show More Stations Show Fewer Stations

What do you think?

We're not finished. Please let us know what you like, what you don't like, and what you are still missing.